createdAt,value
2023-01-29T00:00:32.002Z,26.28
2023-01-29T00:01:31.991Z,26.27
2023-01-29T00:02:31.959Z,26.30
2023-01-29T00:03:31.957Z,26.30
2023-01-29T00:04:31.937Z,26.31
2023-01-29T00:05:31.928Z,26.30
2023-01-29T00:06:31.923Z,26.31
2023-01-29T00:07:31.952Z,26.31
2023-01-29T00:08:31.898Z,26.27
2023-01-29T00:09:31.906Z,26.30
2023-01-29T00:10:31.925Z,26.30
2023-01-29T00:11:31.911Z,26.28
2023-01-29T00:12:31.863Z,26.30
2023-01-29T00:13:31.882Z,26.30
2023-01-29T00:14:31.888Z,26.30
2023-01-29T00:15:31.840Z,26.31
2023-01-29T00:16:31.849Z,26.28
2023-01-29T00:17:31.858Z,26.31
2023-01-29T00:18:31.882Z,26.28
2023-01-29T00:19:31.836Z,26.27
2023-01-29T00:20:31.835Z,26.30
2023-01-29T00:21:31.839Z,26.28
2023-01-29T00:22:31.940Z,26.30
2023-01-29T00:23:31.837Z,26.28
2023-01-29T00:24:31.824Z,26.28
2023-01-29T00:25:31.823Z,26.30
2023-01-29T00:26:31.828Z,26.27
2023-01-29T00:27:31.787Z,26.27
2023-01-29T00:28:31.835Z,26.27
2023-01-29T00:29:31.844Z,26.28
2023-01-29T00:30:31.856Z,26.27
2023-01-29T00:31:31.987Z,26.27
2023-01-29T00:32:31.896Z,26.27
2023-01-29T00:33:31.952Z,26.28
2023-01-29T00:34:31.942Z,26.26
2023-01-29T00:35:31.961Z,26.26
2023-01-29T00:36:31.967Z,26.26
2023-01-29T00:37:31.997Z,26.27
2023-01-29T00:38:32.054Z,26.26
2023-01-29T00:39:46.762Z,26.27
2023-01-29T00:40:33.035Z,26.28
2023-01-29T00:41:32.058Z,26.28
2023-01-29T00:42:32.046Z,26.28
2023-01-29T00:43:32.042Z,26.28
2023-01-29T00:44:32.053Z,26.27
2023-01-29T00:45:32.029Z,26.26
2023-01-29T00:46:32.048Z,26.27
2023-01-29T00:47:32.012Z,26.30
2023-01-29T00:48:32.021Z,26.27
2023-01-29T00:49:31.985Z,26.28
2023-01-29T00:50:31.960Z,26.30
2023-01-29T00:51:31.940Z,26.26
2023-01-29T00:52:31.997Z,26.26
2023-01-29T00:53:31.938Z,26.27
2023-01-29T00:54:33.143Z,26.28
2023-01-29T00:55:31.942Z,26.27
2023-01-29T00:56:31.935Z,26.28
2023-01-29T00:57:31.924Z,26.26
2023-01-29T00:58:31.955Z,26.26
2023-01-29T00:59:31.927Z,26.28
2023-01-29T01:00:32.025Z,26.28
2023-01-29T01:01:31.911Z,26.24
2023-01-29T01:02:31.919Z,26.27
2023-01-29T01:03:31.925Z,26.28
2023-01-29T01:04:34.104Z,26.26
2023-01-29T01:05:31.928Z,26.27
2023-01-29T01:06:31.948Z,26.27
2023-01-29T01:07:31.951Z,26.27
2023-01-29T01:08:31.922Z,26.26
2023-01-29T01:09:31.953Z,26.28
2023-01-29T01:10:31.914Z,26.26
2023-01-29T01:11:31.928Z,26.27
2023-01-29T01:12:31.925Z,26.26
2023-01-29T01:13:31.942Z,26.27
2023-01-29T01:14:31.877Z,26.27
2023-01-29T01:15:31.895Z,26.28
2023-01-29T01:16:31.940Z,26.27
2023-01-29T01:17:31.871Z,26.27
2023-01-29T01:18:31.872Z,26.26
2023-01-29T01:19:31.866Z,26.27
2023-01-29T01:20:31.836Z,26.26
2023-01-29T01:21:31.859Z,26.26
2023-01-29T01:22:31.847Z,26.30
2023-01-29T01:23:31.841Z,26.27
2023-01-29T01:24:31.864Z,26.26
2023-01-29T01:25:31.804Z,26.26
2023-01-29T01:26:31.810Z,26.26
2023-01-29T01:27:31.786Z,26.27
2023-01-29T01:28:31.790Z,26.28
2023-01-29T01:29:31.792Z,26.26
2023-01-29T01:30:31.790Z,26.28
2023-01-29T01:31:31.825Z,26.30
2023-01-29T01:32:31.805Z,26.26
2023-01-29T01:33:31.755Z,26.27
2023-01-29T01:34:31.759Z,26.27
2023-01-29T01:35:31.743Z,26.26
2023-01-29T01:36:31.736Z,26.28
2023-01-29T01:37:31.731Z,26.27
2023-01-29T01:38:31.733Z,26.26
2023-01-29T01:39:31.748Z,26.26
2023-01-29T01:40:31.709Z,26.27
2023-01-29T01:41:31.728Z,26.26
2023-01-29T01:42:32.075Z,26.27
2023-01-29T01:43:31.723Z,26.28
2023-01-29T01:44:31.702Z,26.28
2023-01-29T02:56:31.181Z,26.28
2023-01-29T02:57:31.230Z,26.28
2023-01-29T02:58:31.195Z,26.24
2023-01-29T02:59:31.183Z,26.27
2023-01-29T03:00:31.200Z,26.27
2023-01-29T03:01:31.133Z,26.28
2023-01-29T03:02:31.261Z,26.28
2023-01-29T03:03:31.121Z,26.27
2023-01-29T03:04:31.174Z,26.27
2023-01-29T03:05:31.157Z,26.26
2023-01-29T03:06:31.155Z,26.27
2023-01-29T03:07:31.158Z,26.27
2023-01-29T03:08:31.166Z,26.24
2023-01-29T03:09:31.123Z,26.26
2023-01-29T03:10:31.111Z,26.27
2023-01-29T03:11:31.126Z,26.27
2023-01-29T03:12:31.121Z,26.24
2023-01-29T03:13:31.159Z,26.27
2023-01-29T03:14:31.133Z,26.24
2023-01-29T03:15:31.182Z,26.27
2023-01-29T03:16:31.286Z,26.26
2023-01-29T03:17:31.223Z,26.28
2023-01-29T03:18:31.191Z,26.27
2023-01-29T03:19:31.200Z,26.27
2023-01-29T03:20:31.224Z,26.27
2023-01-29T03:21:31.286Z,26.27
2023-01-29T03:50:31.652Z,26.24
2023-01-29T03:55:31.716Z,26.24
2023-01-29T03:56:31.748Z,26.26
2023-01-29T03:57:31.741Z,26.24
2023-01-29T03:58:31.732Z,26.26
2023-01-29T03:59:31.750Z,26.26
2023-01-29T04:00:31.797Z,26.26
2023-01-29T04:01:31.834Z,26.26
2023-01-29T04:02:31.797Z,26.26
2023-01-29T04:03:31.847Z,26.26
2023-01-29T04:04:31.840Z,26.26
2023-01-29T04:05:31.862Z,26.26
2023-01-29T04:06:31.858Z,26.24
2023-01-29T04:07:31.890Z,26.23
2023-01-29T04:08:31.933Z,26.27
2023-01-29T04:09:31.903Z,26.23
2023-01-29T04:10:31.920Z,26.23
2023-01-29T04:11:31.910Z,26.26
2023-01-29T04:12:31.932Z,26.26
2023-01-29T04:13:31.968Z,26.24
2023-01-29T04:14:32.008Z,26.23
2023-01-29T04:15:31.969Z,26.26
2023-01-29T04:16:32.035Z,26.24
2023-01-29T04:17:32.031Z,26.27
2023-01-29T04:18:32.016Z,26.23
2023-01-29T04:19:32.052Z,26.26
2023-01-29T04:20:32.093Z,26.27
2023-01-29T04:21:32.104Z,26.24
2023-01-29T04:22:32.099Z,26.24
2023-01-29T04:23:32.118Z,26.26
2023-01-29T04:24:32.122Z,26.24
2023-01-29T04:25:32.168Z,26.26
2023-01-29T04:26:32.189Z,26.26
2023-01-29T04:27:32.190Z,26.26
2023-01-29T04:28:32.186Z,26.26
2023-01-29T04:29:32.216Z,26.24
2023-01-29T04:30:32.199Z,26.26
2023-01-29T04:31:32.346Z,26.23
2023-01-29T04:32:32.298Z,26.24
2023-01-29T04:33:32.293Z,26.26
2023-01-29T04:34:32.303Z,26.23
2023-01-29T04:35:32.304Z,26.23
2023-01-29T04:36:32.376Z,26.26
2023-01-29T04:37:32.346Z,26.23
2023-01-29T04:38:32.377Z,26.24
2023-01-29T04:39:32.388Z,26.24
2023-01-29T04:40:32.401Z,26.24
2023-01-29T04:41:32.422Z,26.24
2023-01-29T04:42:32.437Z,26.23
2023-01-29T04:43:32.450Z,26.24
2023-01-29T04:44:32.453Z,26.24
2023-01-29T04:45:32.536Z,26.24
2023-01-29T04:46:32.516Z,26.24
2023-01-29T04:47:32.646Z,26.24
2023-01-29T04:48:32.549Z,26.24
2023-01-29T04:49:32.559Z,26.24
2023-01-29T04:50:32.634Z,26.23
2023-01-29T04:51:32.597Z,26.24
2023-01-29T04:52:32.643Z,26.24
2023-01-29T04:53:32.617Z,26.26
2023-01-29T04:54:32.658Z,26.21
2023-01-29T04:55:32.654Z,26.24
2023-01-29T04:57:32.675Z,26.23
2023-01-29T11:37:41.719Z,28.86
2023-01-29T11:38:41.771Z,28.85
2023-01-29T11:39:41.751Z,28.86
2023-01-29T11:40:41.760Z,28.86
2023-01-29T11:41:41.809Z,28.85
2023-01-29T11:42:41.800Z,28.85
2023-01-29T11:43:41.836Z,28.85
2023-01-29T11:44:41.850Z,28.82
2023-01-29T11:45:41.882Z,28.85
2023-01-29T11:46:41.910Z,28.82
2023-01-29T11:47:41.882Z,28.80
2023-01-29T11:48:41.925Z,28.85
2023-01-29T11:49:41.923Z,28.82
2023-01-29T11:50:41.950Z,28.83
2023-01-29T11:51:41.972Z,28.82
2023-01-29T11:52:41.984Z,28.82
2023-01-29T11:53:42.073Z,28.80
2023-01-29T11:54:42.016Z,28.83
2023-01-29T11:55:50.607Z,28.82
2023-01-29T11:56:43.029Z,28.82
2023-01-29T11:57:41.989Z,28.83
2023-01-29T11:58:42.008Z,28.80
2023-01-29T11:59:42.014Z,28.79
2023-01-29T12:00:41.977Z,28.80
2023-01-29T12:01:41.974Z,28.80
2023-01-29T12:02:42.057Z,28.77
2023-01-29T12:03:42.000Z,28.79
2023-01-29T12:04:41.959Z,28.79
2023-01-29T12:05:42.022Z,28.77
2023-01-29T12:06:41.941Z,28.77
2023-01-29T12:07:41.932Z,28.79
2023-01-29T12:08:41.950Z,28.76
2023-01-29T12:09:41.941Z,28.79
2023-01-29T12:10:41.930Z,28.75
2023-01-29T12:11:41.936Z,28.75
2023-01-29T12:12:41.915Z,28.76
2023-01-29T12:13:41.913Z,28.73
2023-01-29T12:14:41.895Z,28.76
2023-01-29T12:15:41.896Z,28.75
2023-01-29T12:16:41.886Z,28.73
2023-01-29T12:17:41.871Z,28.75
2023-01-29T12:18:41.874Z,28.72
2023-01-29T12:19:41.882Z,28.75
2023-01-29T12:20:41.848Z,28.73
2023-01-29T12:21:41.883Z,28.75
2023-01-29T12:22:41.833Z,28.76
2023-01-29T12:23:41.875Z,28.72
2023-01-29T12:24:41.845Z,28.73
2023-01-29T12:25:41.877Z,28.73
2023-01-29T12:26:41.934Z,28.73
2023-01-29T12:27:42.050Z,28.75
2023-01-29T12:28:41.936Z,28.73
2023-01-29T12:29:41.984Z,28.72
2023-01-29T12:37:42.213Z,28.66
2023-01-29T12:39:42.256Z,28.66
2023-01-29T12:40:42.264Z,28.65
2023-01-29T12:41:43.618Z,28.63
2023-01-29T12:42:42.311Z,28.65
2023-01-29T12:43:42.321Z,28.65
2023-01-29T12:44:42.369Z,28.63
2023-01-29T12:45:42.398Z,28.65
2023-01-29T12:46:42.440Z,28.63
2023-01-29T12:47:42.419Z,28.60
2023-01-29T12:48:42.464Z,28.62
2023-01-29T12:49:42.522Z,28.60
2023-01-29T12:50:42.547Z,28.59
2023-01-29T12:51:42.545Z,28.59
2023-01-29T12:52:42.582Z,28.58
2023-01-29T12:53:42.641Z,28.56
2023-01-29T12:54:42.671Z,28.58
2023-01-29T12:55:42.683Z,28.56
2023-01-29T12:56:42.720Z,28.58
2023-01-29T12:57:42.767Z,28.54
2023-01-29T12:58:42.797Z,28.55
2023-01-29T12:59:42.840Z,28.54
2023-01-29T13:05:43.050Z,28.49
2023-01-29T13:11:43.294Z,28.42
2023-01-29T13:12:43.328Z,28.42
2023-01-29T13:13:43.417Z,28.44
2023-01-29T13:14:43.448Z,28.45
2023-01-29T13:15:43.610Z,28.41
2023-01-29T13:16:43.603Z,28.42
2023-01-29T13:17:43.653Z,28.41
2023-01-29T13:18:43.652Z,28.41
2023-01-29T13:19:43.705Z,28.38
2023-01-29T13:20:43.776Z,28.35
2023-01-29T13:25:44.007Z,28.29
2023-01-29T17:09:51.727Z,26.85
2023-01-29T17:10:51.732Z,26.88
2023-01-29T17:11:51.796Z,26.86
2023-01-29T17:31:52.986Z,26.83
2023-01-29T19:56:01.755Z,26.71
2023-01-29T19:57:01.827Z,26.68
2023-01-29T19:58:01.872Z,26.69
2023-01-29T19:59:01.953Z,26.69
2023-01-29T20:00:02.006Z,26.71
2023-01-29T20:01:02.072Z,26.69
2023-01-29T20:02:02.152Z,26.71
2023-01-29T20:03:02.136Z,26.68
2023-01-29T20:04:02.233Z,26.69
2023-01-29T20:05:02.270Z,26.67
2023-01-29T20:06:02.326Z,26.72
2023-01-29T20:07:02.361Z,26.68
2023-01-29T20:08:02.437Z,26.69
2023-01-29T20:09:02.486Z,26.71
2023-01-29T20:10:02.524Z,26.69
2023-01-29T20:11:02.619Z,26.69
2023-01-29T20:12:02.652Z,26.69
2023-01-29T20:13:02.699Z,26.68
2023-01-29T20:14:02.776Z,26.69
2023-01-29T20:15:02.847Z,26.68
2023-01-29T20:16:02.919Z,26.69
2023-01-29T20:17:02.886Z,26.69
2023-01-29T20:18:02.902Z,26.69
2023-01-29T20:19:14.504Z,26.69
2023-01-29T20:20:03.977Z,26.68
2023-01-29T20:21:02.948Z,26.69
2023-01-29T20:22:02.920Z,26.69
2023-01-29T20:23:02.940Z,26.68
2023-01-29T20:24:02.917Z,26.67
2023-01-29T20:25:02.923Z,26.68
2023-01-29T20:26:02.907Z,26.68
2023-01-29T20:27:02.900Z,26.69
2023-01-29T20:28:02.926Z,26.69
2023-01-29T20:29:02.938Z,26.69
2023-01-29T20:30:02.988Z,26.69
2023-01-29T20:31:03.132Z,26.69
2023-01-29T20:32:03.094Z,26.67
2023-01-29T20:33:03.153Z,26.69
2023-01-29T20:34:03.216Z,26.68
2023-01-29T20:35:03.259Z,26.69
2023-01-29T20:36:03.316Z,26.69
2023-01-29T20:37:03.331Z,26.68
2023-01-29T20:38:03.414Z,26.67
2023-01-29T20:39:03.393Z,26.68
2023-01-29T20:40:03.462Z,26.68
2023-01-29T20:41:03.531Z,26.69
2023-01-29T20:42:03.531Z,26.69
2023-01-29T20:43:03.594Z,26.68
2023-01-29T20:44:03.634Z,26.68
2023-01-29T20:45:03.703Z,26.68
2023-01-29T20:46:03.829Z,26.69
2023-01-29T20:47:03.791Z,26.68
2023-01-29T20:48:03.822Z,26.69
2023-01-29T20:49:03.869Z,26.68
2023-01-29T20:50:03.934Z,26.68
2023-01-29T20:51:03.997Z,26.71
2023-01-29T20:52:04.085Z,26.69
2023-01-29T20:53:04.153Z,26.69
2023-01-29T20:54:04.211Z,26.68
2023-01-29T20:55:04.276Z,26.68
2023-01-29T20:56:04.771Z,26.67
2023-01-29T20:57:04.334Z,26.69
2023-01-29T20:58:06.402Z,26.67
2023-01-29T20:59:04.473Z,26.68
2023-01-29T21:00:04.457Z,26.68
2023-01-29T21:01:04.570Z,26.67
2023-01-29T21:02:04.674Z,26.69
2023-01-29T21:03:04.606Z,26.68
2023-01-29T21:04:04.685Z,26.68
2023-01-29T21:05:04.727Z,26.68
2023-01-29T21:06:04.811Z,26.68
2023-01-29T21:07:04.829Z,26.67
2023-01-29T21:08:04.849Z,26.69
2023-01-29T21:09:04.873Z,26.67
2023-01-29T21:10:04.928Z,26.67
2023-01-29T21:11:04.979Z,26.68
2023-01-29T21:12:04.991Z,26.69
2023-01-29T21:13:05.058Z,26.68
2023-01-29T21:14:05.080Z,26.68
2023-01-29T21:15:05.118Z,26.68
2023-01-29T21:16:05.175Z,26.67
2023-01-29T21:17:05.220Z,26.67
2023-01-29T21:18:05.297Z,26.67
2023-01-29T21:19:05.296Z,26.68
2023-01-29T21:20:05.347Z,26.69
2023-01-29T21:21:05.420Z,26.67
2023-01-29T21:22:05.429Z,26.69
2023-01-29T21:23:07.168Z,26.67
2023-01-29T21:24:05.488Z,26.69
2023-01-29T23:33:12.235Z,26.68
2023-01-29T23:34:11.803Z,26.68
2023-01-29T23:35:11.882Z,26.68
2023-01-29T23:36:11.897Z,26.65
2023-01-29T23:37:11.921Z,26.67
2023-01-29T23:38:11.988Z,26.65
2023-01-29T23:39:12.031Z,26.68
2023-01-29T23:40:12.051Z,26.67
2023-01-29T23:41:12.116Z,26.67
2023-01-29T23:42:12.166Z,26.67
2023-01-29T23:43:12.180Z,26.67
2023-01-29T23:44:12.291Z,26.67
2023-01-29T23:45:12.287Z,26.67
2023-01-29T23:46:12.373Z,26.67
2023-01-29T23:47:12.387Z,26.65
2023-01-29T23:48:12.400Z,26.63
2023-01-29T23:49:12.521Z,26.65
2023-01-29T23:50:12.572Z,26.68
2023-01-29T23:51:12.636Z,26.67
2023-01-29T23:52:12.657Z,26.69
2023-01-29T23:53:12.726Z,26.68
2023-01-29T23:54:12.800Z,26.67
2023-01-29T23:55:12.871Z,26.68
2023-01-29T23:56:12.888Z,26.65
2023-01-29T23:57:12.957Z,26.68
2023-01-29T23:58:12.983Z,26.69
2023-01-29T23:59:13.126Z,26.63
